WMKP Airport Information

Runway Information
Runway 04 Length 10997 ft width 150 ft
Elevation 10 ft Threshold 0 ft Heading 42
Runway 22 Length 10997 ft Width 150 ft
Elevation 11 ft Threshold 0 ft Heading 222
Airport Frequencies
Type ATIS Name ATIS Frequency 126.4 MHZ
Type GND Name PENANG GR Frequency 121.6 MHZ
Type TWR Name PENANG TOW Frequency 121.1 MHZ
Airport Navaids
Type NDB Name Penang Frequency 406 KHZ
Type VOR-DME Name Penang Frequency 116200 KHZ
Airport Weather Information & NOTAM
ADDS - METARS form results

(1619 UTC 07 May 2021)
Data provider http://aviationweather.gov/metar/data/
 
METAR text: WMKP 071600Z VRB03KT 7000 -TSRA FEW010 FEW017CB SCT024 25/24 Q1010 RETSRA NOSIG
Conditions at: WMKP (PENANG/BAYAN LEP, MY) observed 1600 UTC 07 May 2021
Temperature: 25.0°C (77°F)
Dewpoint: 24.0°C (75°F) [RH = 94%]
Pressure (altimeter): 29.82 inches Hg (1010.0 mb)
Winds: variable direction winds at 3 MPH (3 knots; 1.5 m/s)
Visibility: 4 miles ( 7 km)
Ceiling: at least 12,000 feet AGL
Clouds: few clouds at 1000 feet AGL
few clouds at 1700 feet AGL
scattered clouds at 2400 feet AGL
Weather: -TSRA  (light rain associated with thunderstorm(s))

METAR text: WMKP 071530Z 19005KT 100V240 3000 +TSRA FEW010 FEW017CB SCT024 25/25 Q1011 NOSIG
Conditions at: WMKP (PENANG/BAYAN LEP, MY) observed 1530 UTC 07 May 2021
Temperature: 25.0°C (77°F)
Dewpoint: 25.0°C (77°F) [RH = 100%]
Pressure (altimeter): 29.85 inches Hg (1011.0 mb)
Winds: from the S (190 degrees) at 6 MPH (5 knots; 2.6 m/s)
Visibility: 1.86 miles (2.99 km)
Ceiling: at least 12,000 feet AGL
Clouds: few clouds at 1000 feet AGL
few clouds at 1700 feet AGL
scattered clouds at 2400 feet AGL
Weather: +TSRA  (heavy rain associated with thunderstorm(s))

Forecast for: WMKP (PENANG/BAYAN LEP, MY)
Text: TAF WMKP 071100Z 0712/0812 VRB03KT 8000 FEW025
Forecast period: 1200 UTC 07 May 2021 to 0400 UTC 08 May 2021
Forecast type: FROM: standard forecast or significant change
Winds: variable direction winds at 3 MPH (3 knots; 1.5 m/s)
Visibility: 5 miles (8 km)
Ceiling: at least 12,000 feet AGL
Clouds: few clouds at 2500 feet AGL
Weather: no significant weather forecast for this period
Text: BECMG 0804/0806 22007KT 9000 FEW020
Forecast period: 0400 to 1200 UTC 08 May 2021
Forecast type: BECOMING: Conditions expected to become as follows by 0600 UTC 08 May 2021
Winds: from the SW (220 degrees) at 8 MPH (7 knots; 3.6 m/s)
Visibility: 6 miles (9 km)
Ceiling: at least 12,000 feet AGL
Clouds: few clouds at 2000 feet AGL
Weather: no significant weather forecast for this period
Text: PROB30
Forecast period: 0800 to 1200 UTC 08 May 2021
Forecast type: TEMPORARY: The following changes expected for less than half the time period
Visibility: 4 miles (6 km)
Ceiling: at least 12,000 feet AGL
Clouds: few clouds at 1000 feet AGL
few clouds at 1700 feet AGL
Weather: TSRA  (rain associated with thunderstorm(s))